createdAt,value
2022-09-15T00:01:31.510Z,25.00
2022-09-15T00:03:59.767Z,25.00
2022-09-15T00:06:28.057Z,25.00
2022-09-15T00:08:56.936Z,25.00
2022-09-15T00:11:29.195Z,25.00
2022-09-15T00:13:59.422Z,25.00
2022-09-15T00:16:31.444Z,24.90
2022-09-15T00:19:00.811Z,24.90
2022-09-15T00:21:34.389Z,24.80
2022-09-15T00:24:02.743Z,24.80
2022-09-15T00:26:31.997Z,24.80
2022-09-15T00:29:01.465Z,24.80
2022-09-15T00:31:31.129Z,24.80
2022-09-15T00:34:03.131Z,24.80
2022-09-15T00:36:32.680Z,24.70
2022-09-15T00:39:00.730Z,24.70
2022-09-15T00:41:29.138Z,24.70
2022-09-15T00:44:03.135Z,24.70
2022-09-15T00:46:31.201Z,24.70
2022-09-15T00:49:17.200Z,24.70
2022-09-15T00:52:07.911Z,24.70
2022-09-15T00:54:41.906Z,24.70
2022-09-15T00:57:20.202Z,24.70
2022-09-15T00:59:50.030Z,24.80
2022-09-15T01:02:31.041Z,24.80
2022-09-15T01:05:00.846Z,24.80
2022-09-15T01:07:37.758Z,24.80
2022-09-15T01:10:15.305Z,24.70
2022-09-15T01:12:43.869Z,24.80
2022-09-15T01:15:11.808Z,24.80
2022-09-15T01:17:59.039Z,24.80
2022-09-15T01:20:52.913Z,24.70
2022-09-15T01:23:47.250Z,24.60
2022-09-15T01:26:15.055Z,24.50
2022-09-15T01:29:28.148Z,24.50
2022-09-15T01:32:17.356Z,24.40
2022-09-15T01:35:03.222Z,24.30
2022-09-15T01:37:39.767Z,24.20
2022-09-15T01:40:10.387Z,24.20
2022-09-15T01:42:39.400Z,24.10
2022-09-15T01:45:20.285Z,24.10
2022-09-15T01:47:52.918Z,24.10
2022-09-15T01:50:31.559Z,24.00
2022-09-15T01:53:04.620Z,24.00
2022-09-15T01:55:43.883Z,24.00
2022-09-15T01:58:12.699Z,24.00
2022-09-15T02:00:46.561Z,24.00
2022-09-15T02:03:34.275Z,24.00
2022-09-15T02:06:09.901Z,24.00
2022-09-15T02:08:57.675Z,24.00
2022-09-15T02:11:28.655Z,24.00
2022-09-15T02:14:17.637Z,23.90
2022-09-15T02:16:50.659Z,24.00
2022-09-15T02:19:32.181Z,23.90
2022-09-15T02:22:28.286Z,23.90
2022-09-15T02:25:08.396Z,23.90
2022-09-15T02:27:48.921Z,23.90
2022-09-15T02:30:20.825Z,23.90
2022-09-15T02:32:56.607Z,23.90
2022-09-15T02:35:26.720Z,23.90
2022-09-15T02:37:57.131Z,23.90
2022-09-15T02:40:25.338Z,23.90
2022-09-15T02:42:56.607Z,23.90
2022-09-15T02:45:27.324Z,23.90
2022-09-15T02:47:55.425Z,23.90
2022-09-15T02:50:23.478Z,23.80
2022-09-15T02:52:51.541Z,23.80
2022-09-15T02:55:19.451Z,23.70
2022-09-15T02:57:47.503Z,23.70
2022-09-15T03:00:20.644Z,23.70
2022-09-15T03:02:52.185Z,23.60
2022-09-15T03:05:23.380Z,23.60
2022-09-15T03:07:52.723Z,23.60
2022-09-15T03:10:22.031Z,23.50
2022-09-15T03:12:51.996Z,23.40
2022-09-15T03:15:23.729Z,23.50
2022-09-15T03:17:52.920Z,23.50
2022-09-15T03:20:23.961Z,23.50
2022-09-15T03:22:52.019Z,23.50
2022-09-15T03:25:20.827Z,23.50
2022-09-15T03:27:48.969Z,23.50
2022-09-15T03:30:17.234Z,23.50
2022-09-15T03:32:46.061Z,23.60
2022-09-15T03:35:14.015Z,23.60
2022-09-15T03:37:43.327Z,23.60
2022-09-15T03:40:11.553Z,23.50
2022-09-15T03:42:39.632Z,23.50
2022-09-15T03:45:07.941Z,23.50
2022-09-15T03:47:36.316Z,23.50
2022-09-15T03:50:04.626Z,23.50
2022-09-15T03:52:32.861Z,23.50
2022-09-15T03:55:00.810Z,23.50
2022-09-15T03:57:28.930Z,23.50
2022-09-15T03:59:57.138Z,23.50
2022-09-15T04:02:25.245Z,23.50
2022-09-15T04:04:53.401Z,23.50
2022-09-15T04:07:21.417Z,23.50
2022-09-15T04:09:49.654Z,23.50
2022-09-15T04:12:17.919Z,23.50
2022-09-15T04:14:46.859Z,23.40
2022-09-15T04:17:16.289Z,23.40
2022-09-15T04:19:44.214Z,23.40
2022-09-15T04:22:16.961Z,23.40
2022-09-15T04:24:48.480Z,23.40
2022-09-15T04:27:18.291Z,23.40
2022-09-15T04:29:46.651Z,23.40
2022-09-15T04:32:14.717Z,23.40
2022-09-15T04:34:42.879Z,23.40
2022-09-15T04:37:12.243Z,23.40
2022-09-15T04:39:40.562Z,23.40
2022-09-15T04:42:08.690Z,23.40
2022-09-15T04:44:36.667Z,23.40
2022-09-15T04:47:05.139Z,23.40
2022-09-15T04:49:33.481Z,23.40
2022-09-15T04:52:01.900Z,23.40
2022-09-15T04:54:30.376Z,23.30
2022-09-15T04:56:58.408Z,23.30
2022-09-15T04:59:29.550Z,23.30
2022-09-15T05:01:57.903Z,23.40
2022-09-15T05:04:26.214Z,23.40
2022-09-15T05:06:54.348Z,23.40
2022-09-15T05:09:22.415Z,23.50
2022-09-15T05:11:50.846Z,23.50
2022-09-15T05:14:18.966Z,23.50
2022-09-15T05:16:47.078Z,23.50
2022-09-15T05:19:15.027Z,23.50
2022-09-15T05:21:43.240Z,23.50
2022-09-15T05:24:11.372Z,23.60
2022-09-15T05:26:39.438Z,23.60
2022-09-15T05:29:08.356Z,23.60
2022-09-15T05:31:36.574Z,23.70
2022-09-15T05:34:06.300Z,23.70
2022-09-15T05:36:35.487Z,23.80
2022-09-15T05:39:03.986Z,23.90
2022-09-15T05:41:32.002Z,24.00
2022-09-15T05:44:00.254Z,24.20
2022-09-15T05:46:29.644Z,24.20
2022-09-15T05:48:58.900Z,24.20
2022-09-15T05:51:28.269Z,24.30
2022-09-15T05:53:56.410Z,24.40
2022-09-15T05:56:24.637Z,24.40
2022-09-15T05:58:53.206Z,24.50
2022-09-15T06:01:30.679Z,24.50
2022-09-15T06:03:59.511Z,24.50
2022-09-15T06:06:27.469Z,24.60
2022-09-15T06:08:58.761Z,24.60
2022-09-15T06:11:31.481Z,24.70
2022-09-15T06:14:04.237Z,24.70
2022-09-15T06:16:34.727Z,24.80
2022-09-15T06:19:03.822Z,24.80
2022-09-15T06:21:33.250Z,24.90
2022-09-15T06:24:04.044Z,25.00
2022-09-15T06:26:32.218Z,25.10
2022-09-15T06:29:03.112Z,25.20
2022-09-15T06:31:33.391Z,25.30
2022-09-15T06:34:02.199Z,25.50
2022-09-15T06:36:32.276Z,25.60
2022-09-15T06:39:00.616Z,25.70
2022-09-15T06:41:52.621Z,25.90
2022-09-15T06:44:20.569Z,26.00
2022-09-15T06:46:52.109Z,26.20
2022-09-15T06:49:22.228Z,26.40
2022-09-15T06:51:50.339Z,26.50
2022-09-15T06:54:18.463Z,26.70
2022-09-15T06:56:48.653Z,26.90
2022-09-15T06:59:17.490Z,27.00
2022-09-15T07:01:45.438Z,27.20
2022-09-15T07:04:13.543Z,27.30
2022-09-15T07:06:41.257Z,27.50
2022-09-15T07:09:11.465Z,27.70
2022-09-15T07:11:39.536Z,27.90
2022-09-15T07:14:07.589Z,28.00
2022-09-15T07:16:35.739Z,28.10
2022-09-15T07:19:06.169Z,28.30
2022-09-15T07:21:34.734Z,28.40
2022-09-15T07:24:07.007Z,28.50
2022-09-15T07:26:36.103Z,28.60
2022-09-15T07:29:06.722Z,28.70
2022-09-15T07:31:36.818Z,28.80
2022-09-15T07:34:05.673Z,29.00
2022-09-15T07:36:38.195Z,29.20
2022-09-15T07:39:06.672Z,29.20
2022-09-15T07:41:39.346Z,29.20
2022-09-15T07:44:08.855Z,29.20
2022-09-15T07:46:36.952Z,29.30
2022-09-15T07:49:08.859Z,29.40
2022-09-15T07:51:36.932Z,29.40
2022-09-15T07:54:05.210Z,29.50
2022-09-15T07:56:33.832Z,29.50
2022-09-15T07:59:01.853Z,29.70
2022-09-15T08:01:29.875Z,29.70
2022-09-15T08:03:58.043Z,29.60
2022-09-15T08:06:29.212Z,29.70
2022-09-15T08:09:00.813Z,29.80
2022-09-15T08:11:29.595Z,29.90
2022-09-15T08:14:03.480Z,29.90
2022-09-15T08:16:32.169Z,30.10
2022-09-15T08:19:01.326Z,29.80
2022-09-15T08:21:29.562Z,29.90
2022-09-15T08:23:59.861Z,30.00
2022-09-15T08:26:32.695Z,30.00
2022-09-15T08:29:01.800Z,30.20
2022-09-15T08:31:29.873Z,30.20
2022-09-15T08:33:58.166Z,30.00
2022-09-15T08:36:28.361Z,30.10
2022-09-15T08:38:57.045Z,30.10
2022-09-15T08:41:27.781Z,30.40
2022-09-15T08:44:02.686Z,30.50
2022-09-15T08:47:05.565Z,30.90
2022-09-15T08:49:55.114Z,30.90
2022-09-15T08:52:35.810Z,31.00
2022-09-15T08:55:16.308Z,30.80
2022-09-15T08:57:45.596Z,30.90
2022-09-15T09:00:17.342Z,30.90
2022-09-15T09:03:05.694Z,30.90
2022-09-15T09:05:52.442Z,31.00
2022-09-15T09:08:51.879Z,31.10
2022-09-15T09:11:26.639Z,31.10
2022-09-15T09:14:24.519Z,31.40
2022-09-15T09:17:22.262Z,31.80
2022-09-15T09:20:09.614Z,32.30
2022-09-15T09:22:42.020Z,32.30
2022-09-15T09:25:26.593Z,32.10
2022-09-15T09:27:58.888Z,32.40
2022-09-15T09:30:30.259Z,32.70
2022-09-15T09:33:18.847Z,32.60
2022-09-15T09:35:50.291Z,33.00
2022-09-15T09:38:25.816Z,33.10
2022-09-15T09:40:56.585Z,33.20
2022-09-15T09:43:30.441Z,33.50
2022-09-15T09:45:59.886Z,33.70
2022-09-15T09:48:29.623Z,33.90
2022-09-15T09:50:57.881Z,33.90
2022-09-15T09:53:31.759Z,33.70
2022-09-15T09:56:26.153Z,33.40
2022-09-15T09:58:55.712Z,34.00
2022-09-15T10:01:26.426Z,34.60
2022-09-15T10:04:19.596Z,34.40
2022-09-15T10:06:48.151Z,33.90
2022-09-15T10:09:19.136Z,34.30
2022-09-15T10:11:52.051Z,34.90
2022-09-15T10:14:27.143Z,35.40
2022-09-15T10:16:59.373Z,35.70
2022-09-15T10:19:30.481Z,35.60
2022-09-15T10:21:59.970Z,35.80
2022-09-15T10:24:27.796Z,36.10
2022-09-15T10:27:35.391Z,36.70
2022-09-15T10:30:15.640Z,37.40
2022-09-15T10:32:43.956Z,37.70
2022-09-15T10:35:15.856Z,37.50
2022-09-15T10:38:00.356Z,37.90
2022-09-15T10:40:38.738Z,38.00
2022-09-15T10:43:47.088Z,38.80
2022-09-15T10:46:42.351Z,39.20
2022-09-15T10:49:45.016Z,39.90
2022-09-15T10:52:41.022Z,39.00
2022-09-15T10:55:48.863Z,39.20
2022-09-15T10:58:45.787Z,40.20
2022-09-15T11:01:55.664Z,39.90
2022-09-15T11:04:38.973Z,39.30
2022-09-15T11:07:25.065Z,39.10
2022-09-15T11:10:25.783Z,39.30
2022-09-15T11:13:05.162Z,40.00
2022-09-15T11:16:00.899Z,40.50
2022-09-15T11:18:44.280Z,41.70
2022-09-15T11:21:23.613Z,42.20
2022-09-15T11:24:23.642Z,43.00
2022-09-15T11:27:17.821Z,43.20
2022-09-15T11:30:02.177Z,42.50
2022-09-15T11:32:55.748Z,42.10
2022-09-15T11:35:46.775Z,41.60
2022-09-15T11:38:23.839Z,41.50
2022-09-15T11:41:13.830Z,42.60
2022-09-15T11:44:16.128Z,43.00
2022-09-15T11:47:05.882Z,42.50
2022-09-15T11:49:47.968Z,42.20
2022-09-15T11:52:46.476Z,42.60
2022-09-15T11:55:38.519Z,43.90
2022-09-15T11:58:29.965Z,43.30
2022-09-15T12:01:02.459Z,42.50
2022-09-15T12:03:38.238Z,42.80
2022-09-15T12:06:32.705Z,43.30
2022-09-15T12:09:03.494Z,44.00
2022-09-15T12:11:36.153Z,44.80
2022-09-15T12:14:06.105Z,45.40
2022-09-15T12:16:35.160Z,45.50
2022-09-15T12:19:33.902Z,45.10
2022-09-15T12:22:11.486Z,45.70
2022-09-15T12:24:46.463Z,46.20
2022-09-15T12:27:18.916Z,46.50
2022-09-15T12:29:58.554Z,46.40
2022-09-15T12:32:30.860Z,45.90
2022-09-15T12:35:10.149Z,45.30
2022-09-15T12:38:02.493Z,44.90
2022-09-15T12:40:42.382Z,45.50
2022-09-15T12:43:13.760Z,46.10
2022-09-15T12:45:44.305Z,46.50
2022-09-15T12:48:19.403Z,46.70
2022-09-15T12:51:21.796Z,46.50
2022-09-15T12:54:05.073Z,46.50
2022-09-15T12:56:34.624Z,46.60
2022-09-15T12:59:07.622Z,47.00
2022-09-15T13:01:56.925Z,47.20
2022-09-15T13:04:53.726Z,46.60
2022-09-15T13:07:34.196Z,46.60
2022-09-15T13:10:14.355Z,46.70
2022-09-15T13:12:50.104Z,46.70
2022-09-15T13:15:19.663Z,46.10
2022-09-15T13:17:48.591Z,46.10
2022-09-15T13:20:23.643Z,46.30
2022-09-15T13:22:56.887Z,46.10
2022-09-15T13:25:30.116Z,46.00
2022-09-15T13:28:02.935Z,46.20
2022-09-15T13:31:10.111Z,46.00
2022-09-15T13:40:53.863Z,46.70
2022-09-15T13:44:18.590Z,46.70
2022-09-15T13:47:20.679Z,46.80
2022-09-15T13:50:07.333Z,46.90
2022-09-15T13:53:11.562Z,46.70
2022-09-15T13:55:44.016Z,46.80
2022-09-15T14:01:06.926Z,46.80
2022-09-15T14:03:43.545Z,46.50
2022-09-15T14:06:27.524Z,46.00
2022-09-15T14:08:59.346Z,45.40
2022-09-15T14:11:34.205Z,45.60
2022-09-15T14:14:03.612Z,45.30
2022-09-15T14:16:35.249Z,45.30
2022-09-15T14:19:25.128Z,45.20
2022-09-15T14:21:58.277Z,44.70
2022-09-15T14:24:32.815Z,44.50
2022-09-15T14:27:09.444Z,44.40
2022-09-15T14:29:42.440Z,44.40
2022-09-15T14:32:16.615Z,44.00
2022-09-15T14:34:45.800Z,43.30
2022-09-15T14:37:24.347Z,42.80
2022-09-15T14:39:56.859Z,42.30
2022-09-15T14:42:51.322Z,41.90
2022-09-15T14:48:18.559Z,40.90
2022-09-15T14:50:57.314Z,40.50
2022-09-15T14:53:27.429Z,40.30
2022-09-15T14:56:03.162Z,39.90
2022-09-15T14:58:43.675Z,39.70
2022-09-15T15:01:23.660Z,39.40
2022-09-15T15:04:23.289Z,38.90
2022-09-15T15:06:55.655Z,38.40
2022-09-15T15:09:33.342Z,38.00
2022-09-15T15:12:24.214Z,37.70
2022-09-15T15:14:56.704Z,37.30
2022-09-15T15:17:48.388Z,37.00
2022-09-15T15:20:23.464Z,36.80
2022-09-15T15:23:28.610Z,36.70
2022-09-15T15:26:36.331Z,36.60
2022-09-15T15:29:07.774Z,36.10
2022-09-15T15:31:41.009Z,35.90
2022-09-15T15:34:28.378Z,35.90
2022-09-15T15:37:20.644Z,35.90
2022-09-15T15:39:48.913Z,35.90
2022-09-15T15:42:17.552Z,36.00
2022-09-15T15:45:19.996Z,36.10
2022-09-15T15:47:48.820Z,36.20
2022-09-15T15:50:24.426Z,36.30
2022-09-15T15:52:53.503Z,36.40
2022-09-15T15:55:23.877Z,36.40
2022-09-15T15:57:54.745Z,36.60
2022-09-15T16:00:25.814Z,37.00
2022-09-15T16:02:54.462Z,37.50
2022-09-15T16:05:26.229Z,38.00
2022-09-15T16:07:56.557Z,38.20
2022-09-15T16:10:28.804Z,38.30
2022-09-15T16:12:57.106Z,38.40
2022-09-15T16:15:25.136Z,38.30
2022-09-15T16:17:53.269Z,38.00
2022-09-15T16:20:22.143Z,37.60
2022-09-15T16:22:50.391Z,37.00
2022-09-15T16:25:41.260Z,36.40
2022-09-15T16:28:09.401Z,35.50
2022-09-15T16:30:37.441Z,34.90
2022-09-15T16:33:05.892Z,34.40
2022-09-15T16:36:09.570Z,33.90
2022-09-15T16:38:37.887Z,33.50
2022-09-15T16:41:26.395Z,33.30
2022-09-15T16:43:56.399Z,33.10
2022-09-15T16:46:24.699Z,33.00
2022-09-15T16:48:52.793Z,32.90
2022-09-15T16:51:29.924Z,32.70
2022-09-15T16:53:59.791Z,32.60
2022-09-15T16:56:28.514Z,32.50
2022-09-15T16:59:00.503Z,32.50
2022-09-15T17:01:29.118Z,32.20
2022-09-15T17:03:57.143Z,32.00
2022-09-15T17:06:25.603Z,31.60
2022-09-15T17:08:54.041Z,31.30
2022-09-15T17:11:25.664Z,31.00
2022-09-15T17:13:53.995Z,30.70
2022-09-15T17:16:22.342Z,30.60
2022-09-15T17:18:50.798Z,30.50
2022-09-15T17:21:20.273Z,30.30
2022-09-15T17:23:50.477Z,30.10
2022-09-15T17:26:21.910Z,29.80
2022-09-15T17:28:49.980Z,29.70
2022-09-15T17:31:23.542Z,29.70
2022-09-15T17:33:52.462Z,29.70
2022-09-15T17:36:20.959Z,29.80
2022-09-15T17:38:49.336Z,29.90
2022-09-15T17:41:19.855Z,29.80
2022-09-15T17:43:51.273Z,29.80
2022-09-15T17:46:19.440Z,29.60
2022-09-15T17:48:47.453Z,29.60
2022-09-15T17:51:20.537Z,29.40
2022-09-15T17:53:48.573Z,29.20
2022-09-15T17:56:17.601Z,28.90
2022-09-15T17:58:46.700Z,28.90
2022-09-15T18:01:16.455Z,28.80
2022-09-15T18:03:47.390Z,28.70
2022-09-15T18:06:15.641Z,28.70
2022-09-15T18:08:43.732Z,28.80
2022-09-15T18:11:14.892Z,28.70
2022-09-15T18:13:43.429Z,28.50
2022-09-15T18:16:14.768Z,28.40
2022-09-15T18:18:43.423Z,28.30
2022-09-15T18:21:25.500Z,28.40
2022-09-15T18:23:54.317Z,28.50
2022-09-15T18:26:26.278Z,28.50
2022-09-15T18:28:55.462Z,28.60
2022-09-15T18:31:23.911Z,28.60
2022-09-15T18:33:53.733Z,28.60
2022-09-15T18:36:22.521Z,28.50
2022-09-15T18:38:50.357Z,28.50
2022-09-15T18:41:19.152Z,28.50
2022-09-15T18:43:50.054Z,28.60
2022-09-15T18:46:18.770Z,28.60
2022-09-15T18:48:46.888Z,28.60
2022-09-15T18:51:24.066Z,28.60
2022-09-15T18:53:54.499Z,28.60
2022-09-15T18:56:22.860Z,28.60
2022-09-15T18:58:54.402Z,28.50
2022-09-15T19:01:23.313Z,28.50
2022-09-15T19:03:51.479Z,28.50
2022-09-15T19:06:19.638Z,28.50
2022-09-15T19:08:47.570Z,28.50
2022-09-15T19:11:15.849Z,28.40
2022-09-15T19:13:44.008Z,28.40
2022-09-15T19:16:12.310Z,28.40
2022-09-15T19:18:40.516Z,28.40
2022-09-15T19:21:14.080Z,28.40
2022-09-15T19:23:42.812Z,28.30
2022-09-15T19:26:17.596Z,28.30
2022-09-15T19:28:45.799Z,28.30
2022-09-15T19:31:14.848Z,28.30
2022-09-15T19:33:43.969Z,28.20
2022-09-15T19:36:27.304Z,28.10
2022-09-15T19:39:03.035Z,28.10
2022-09-15T19:41:31.626Z,28.10
2022-09-15T19:44:02.754Z,28.10
2022-09-15T19:46:31.738Z,28.00
2022-09-15T19:49:03.363Z,28.00
2022-09-15T19:51:32.075Z,28.00
2022-09-15T19:54:00.702Z,27.90
2022-09-15T19:56:30.030Z,27.80
2022-09-15T19:59:00.027Z,27.70
2022-09-15T20:01:29.930Z,27.70
2022-09-15T20:04:02.779Z,27.60
2022-09-15T20:06:34.003Z,27.60
2022-09-15T20:09:03.623Z,27.60
2022-09-15T20:11:32.422Z,27.60
2022-09-15T20:14:03.908Z,27.50
2022-09-15T20:16:32.606Z,27.60
2022-09-15T20:19:02.584Z,27.60
2022-09-15T20:21:51.337Z,27.60
2022-09-15T20:24:21.519Z,27.50
2022-09-15T20:26:50.234Z,27.50
2022-09-15T20:29:19.045Z,27.50
2022-09-15T20:31:50.202Z,27.50
2022-09-15T20:34:21.574Z,27.50
2022-09-15T20:36:50.459Z,27.50
2022-09-15T20:39:22.453Z,27.50
2022-09-15T20:41:50.765Z,27.50
2022-09-15T20:44:18.755Z,27.50
2022-09-15T20:46:46.978Z,27.50
2022-09-15T20:49:14.973Z,27.50
2022-09-15T20:51:43.183Z,27.50
2022-09-15T20:54:11.760Z,27.50
2022-09-15T20:56:42.357Z,27.50
2022-09-15T20:59:14.639Z,27.50
2022-09-15T21:01:45.399Z,27.50
2022-09-15T21:04:13.847Z,27.50
2022-09-15T21:06:42.066Z,27.50
2022-09-15T21:09:10.525Z,27.50
2022-09-15T21:11:39.994Z,27.40
2022-09-15T21:14:08.149Z,27.40
2022-09-15T21:16:36.303Z,27.40
2022-09-15T21:19:04.734Z,27.40
2022-09-15T21:21:34.522Z,27.40
2022-09-15T21:24:08.075Z,27.40
2022-09-15T21:26:59.681Z,27.30
2022-09-15T21:29:28.967Z,27.30
2022-09-15T21:31:57.064Z,27.30
2022-09-15T21:34:25.432Z,27.30
2022-09-15T21:36:54.138Z,27.30
2022-09-15T21:39:22.391Z,27.30
2022-09-15T21:41:50.538Z,27.30
2022-09-15T21:44:19.279Z,27.20
2022-09-15T21:46:47.962Z,27.20
2022-09-15T21:49:18.426Z,27.10
2022-09-15T21:51:46.881Z,27.10
2022-09-15T21:54:15.265Z,27.10
2022-09-15T21:56:45.832Z,27.10
2022-09-15T21:59:14.727Z,27.00
2022-09-15T22:01:42.728Z,27.00
2022-09-15T22:04:11.054Z,27.00
2022-09-15T22:06:41.283Z,27.00
2022-09-15T22:09:13.598Z,27.00
2022-09-15T22:11:42.319Z,26.90
2022-09-15T22:14:10.785Z,26.90
2022-09-15T22:16:40.730Z,26.90
2022-09-15T22:19:10.545Z,26.90
2022-09-15T22:21:42.227Z,26.90
2022-09-15T22:24:13.250Z,26.90
2022-09-15T22:26:42.932Z,26.90
2022-09-15T22:29:14.441Z,26.90
2022-09-15T22:31:42.711Z,26.80
2022-09-15T22:34:12.002Z,26.80
2022-09-15T22:36:40.735Z,26.70
2022-09-15T22:39:09.075Z,26.70
2022-09-15T22:41:39.092Z,26.60
2022-09-15T22:44:18.029Z,26.40
2022-09-15T22:46:46.750Z,26.30
2022-09-15T22:49:14.776Z,26.30
2022-09-15T22:51:43.446Z,26.30
2022-09-15T22:54:11.540Z,26.30
2022-09-15T22:56:39.566Z,26.30
2022-09-15T22:59:07.775Z,26.20
2022-09-15T23:01:36.845Z,26.30
2022-09-15T23:04:04.807Z,26.30
2022-09-15T23:06:34.505Z,26.30
2022-09-15T23:09:05.825Z,26.20
2022-09-15T23:11:34.393Z,26.20
2022-09-15T23:14:03.087Z,26.20
2022-09-15T23:16:31.556Z,26.20
2022-09-15T23:19:00.561Z,26.10
2022-09-15T23:21:28.894Z,26.10
2022-09-15T23:23:57.194Z,26.00
2022-09-15T23:26:26.262Z,26.00
2022-09-15T23:28:54.784Z,25.90
2022-09-15T23:31:23.369Z,25.90
2022-09-15T23:33:56.001Z,25.90
2022-09-15T23:36:24.067Z,25.90
2022-09-15T23:38:52.030Z,25.80
2022-09-15T23:41:20.380Z,25.70
2022-09-15T23:43:48.403Z,25.70
2022-09-15T23:46:17.826Z,25.60
2022-09-15T23:48:46.012Z,25.50
2022-09-15T23:51:14.277Z,25.50
2022-09-15T23:53:42.351Z,25.40
2022-09-15T23:56:11.002Z,25.40
2022-09-15T23:58:39.527Z,25.40
